createdAt,value
2019-05-03T00:00:15.704Z,996.36
2019-05-03T00:01:15.694Z,996.37
2019-05-03T00:02:15.688Z,996.41
2019-05-03T00:03:15.693Z,996.37
2019-05-03T00:04:15.665Z,996.40
2019-05-03T00:05:15.665Z,996.43
2019-05-03T00:06:15.653Z,996.40
2019-05-03T00:07:15.653Z,996.39
2019-05-03T00:08:15.710Z,996.43
2019-05-03T00:09:15.649Z,996.44
2019-05-03T00:10:15.648Z,996.38
2019-05-03T00:11:15.641Z,996.38
2019-05-03T00:12:15.630Z,996.35
2019-05-03T00:13:15.626Z,996.41
2019-05-03T00:14:15.616Z,996.40
2019-05-03T00:15:15.613Z,996.39
2019-05-03T00:16:15.620Z,996.33
2019-05-03T00:17:15.586Z,996.36
2019-05-03T00:18:15.585Z,996.34
2019-05-03T00:19:15.609Z,996.33
2019-05-03T00:20:15.591Z,996.33
2019-05-03T00:21:15.579Z,996.31
2019-05-03T00:22:15.605Z,996.35
2019-05-03T00:23:15.564Z,996.35
2019-05-03T00:24:15.555Z,996.29
2019-05-03T00:25:15.549Z,996.23
2019-05-03T00:26:15.556Z,996.30
2019-05-03T00:27:15.535Z,996.27
2019-05-03T00:28:15.530Z,996.29
2019-05-03T00:29:15.523Z,996.23
2019-05-03T00:30:15.517Z,996.31
2019-05-03T00:31:15.516Z,996.25
2019-05-03T00:32:15.503Z,996.28
2019-05-03T00:33:15.497Z,996.22
2019-05-03T00:34:15.496Z,996.27
2019-05-03T00:35:15.474Z,996.21
2019-05-03T00:36:15.466Z,996.25
2019-05-03T00:37:15.476Z,996.22
2019-05-03T00:38:15.482Z,996.22
2019-05-03T00:39:15.475Z,996.21
2019-05-03T00:40:15.444Z,996.26
2019-05-03T00:41:15.434Z,996.25
2019-05-03T00:42:15.430Z,996.25
2019-05-03T00:43:15.419Z,996.27
2019-05-03T00:44:15.421Z,996.26
2019-05-03T00:45:15.398Z,996.25
2019-05-03T00:46:15.386Z,996.20
2019-05-03T00:47:15.381Z,996.18
2019-05-03T00:48:15.375Z,996.22
2019-05-03T00:49:15.368Z,996.18
2019-05-03T00:50:15.391Z,996.21
2019-05-03T00:51:15.355Z,996.23
2019-05-03T00:52:15.353Z,996.23
2019-05-03T00:53:15.334Z,996.20
2019-05-03T00:54:15.337Z,996.23
2019-05-03T00:55:18.980Z,996.25
2019-05-03T00:56:15.326Z,996.24
2019-05-03T00:57:15.301Z,996.25
2019-05-03T00:58:15.295Z,996.21
2019-05-03T00:59:15.300Z,996.27
2019-05-03T01:00:15.302Z,996.27
2019-05-03T01:01:15.295Z,996.27
2019-05-03T01:02:15.337Z,996.23
2019-05-03T01:03:15.297Z,996.23
2019-05-03T01:04:15.289Z,996.19
2019-05-03T01:05:15.317Z,996.29
2019-05-03T01:06:15.297Z,996.19
2019-05-03T01:07:15.292Z,996.21
2019-05-03T01:08:15.285Z,996.23
2019-05-03T01:09:15.277Z,996.24
2019-05-03T01:10:15.272Z,996.26
2019-05-03T01:11:15.266Z,996.22
2019-05-03T01:12:15.282Z,996.26
2019-05-03T01:13:15.289Z,996.29
2019-05-03T01:14:15.287Z,996.27
2019-05-03T01:15:15.270Z,996.30
2019-05-03T01:16:15.276Z,996.32
2019-05-03T01:17:15.280Z,996.30
2019-05-03T01:18:15.285Z,996.28
2019-05-03T01:19:15.271Z,996.27
2019-05-03T01:20:15.289Z,996.25
2019-05-03T01:21:15.273Z,996.30
2019-05-03T01:22:15.265Z,996.30
2019-05-03T01:23:15.254Z,996.37
2019-05-03T01:24:17.962Z,996.34
2019-05-03T01:25:15.245Z,996.34
2019-05-03T01:26:15.250Z,996.39
2019-05-03T01:27:15.222Z,996.36
2019-05-03T01:28:15.213Z,996.35
2019-05-03T01:29:15.236Z,996.34
2019-05-03T01:30:15.205Z,996.36
2019-05-03T01:31:15.202Z,996.40
2019-05-03T01:32:15.198Z,996.42
2019-05-03T01:33:15.176Z,996.48
2019-05-03T01:34:15.193Z,996.47
2019-05-03T01:35:15.178Z,996.51
2019-05-03T01:36:15.169Z,996.49
2019-05-03T01:37:15.178Z,996.50
2019-05-03T01:38:15.158Z,996.54
2019-05-03T01:39:15.156Z,996.58
2019-05-03T01:40:15.139Z,996.50
2019-05-03T01:41:15.131Z,996.57
2019-05-03T01:42:15.121Z,996.52
2019-05-03T01:43:15.130Z,996.62
2019-05-03T01:44:15.109Z,996.56
2019-05-03T01:45:15.116Z,996.54
2019-05-03T01:46:15.091Z,996.59
2019-05-03T01:47:15.084Z,996.62
2019-05-03T01:48:15.090Z,996.60
2019-05-03T01:49:15.075Z,996.58
2019-05-03T01:50:15.099Z,996.59
2019-05-03T01:51:15.053Z,996.62
2019-05-03T01:52:15.068Z,996.61
2019-05-03T01:53:15.050Z,996.59
2019-05-03T01:54:15.062Z,996.59
2019-05-03T01:55:15.961Z,996.63
2019-05-03T01:56:15.061Z,996.66
2019-05-03T01:57:15.012Z,996.63
2019-05-03T01:58:15.006Z,996.63
2019-05-03T01:59:15.028Z,996.67
2019-05-03T02:00:14.985Z,996.67
2019-05-03T02:01:14.986Z,996.64
2019-05-03T02:02:14.986Z,996.65
2019-05-03T02:03:14.966Z,996.67
2019-05-03T02:04:14.970Z,996.70
2019-05-03T02:05:14.955Z,996.71
2019-05-03T02:06:14.958Z,996.74
2019-05-03T02:07:14.942Z,996.73
2019-05-03T02:08:14.936Z,996.70
2019-05-03T02:09:14.915Z,996.70
2019-05-03T02:10:14.913Z,996.80
2019-05-03T02:11:14.922Z,996.77
2019-05-03T02:12:14.896Z,996.66
2019-05-03T02:13:14.894Z,996.69
2019-05-03T02:14:14.884Z,996.76
2019-05-03T02:15:14.871Z,996.76
2019-05-03T02:16:14.864Z,996.73
2019-05-03T02:17:14.857Z,996.72
2019-05-03T02:18:15.272Z,996.73
2019-05-03T02:19:14.850Z,996.77
2019-05-03T02:20:14.841Z,996.72
2019-05-03T02:21:14.828Z,996.67
2019-05-03T02:22:14.819Z,996.72
2019-05-03T02:23:14.814Z,996.77
2019-05-03T02:24:14.805Z,996.71
2019-05-03T02:25:14.820Z,996.73
2019-05-03T02:26:14.807Z,996.77
2019-05-03T02:27:14.794Z,996.72
2019-05-03T02:28:14.784Z,996.73
2019-05-03T02:29:14.777Z,996.68
2019-05-03T02:30:14.781Z,996.70
2019-05-03T02:31:14.801Z,996.74
2019-05-03T02:32:14.760Z,996.77
2019-05-03T02:33:14.760Z,996.70
2019-05-03T02:34:14.741Z,996.73
2019-05-03T02:35:14.735Z,996.76
2019-05-03T02:36:14.723Z,996.75
2019-05-03T02:37:14.737Z,996.76
2019-05-03T02:38:14.710Z,996.75
2019-05-03T02:39:14.708Z,996.72
2019-05-03T02:40:14.719Z,996.79
2019-05-03T02:41:14.680Z,996.79
2019-05-03T02:42:16.076Z,996.84
2019-05-03T02:43:16.575Z,996.80
2019-05-03T02:44:15.582Z,996.78
2019-05-03T02:45:15.423Z,996.76
2019-05-03T02:46:16.845Z,996.80
2019-05-03T02:47:15.877Z,996.81
2019-05-03T02:48:16.512Z,996.83
2019-05-03T02:49:15.373Z,996.82
2019-05-03T02:50:16.749Z,996.76
2019-05-03T02:51:15.581Z,996.79
2019-05-03T02:52:15.171Z,996.84
2019-05-03T02:53:15.689Z,996.82
2019-05-03T02:54:15.680Z,996.82
2019-05-03T02:55:16.093Z,996.85
2019-05-03T02:56:21.954Z,996.88
2019-05-03T02:57:15.560Z,996.79
2019-05-03T02:58:15.836Z,996.82
2019-05-03T02:59:15.719Z,996.82
2019-05-03T03:00:16.295Z,996.81
2019-05-03T03:01:16.315Z,996.83
2019-05-03T03:02:15.168Z,996.82
2019-05-03T03:03:16.589Z,996.80
2019-05-03T03:04:15.769Z,996.85
2019-05-03T03:05:16.673Z,996.85
2019-05-03T03:06:15.645Z,996.82
2019-05-03T03:07:15.145Z,996.83
2019-05-03T03:08:16.263Z,996.84
2019-05-03T03:09:16.497Z,996.80
2019-05-03T03:10:16.174Z,996.82
2019-05-03T03:11:15.574Z,996.83
2019-05-03T03:12:15.224Z,996.83
2019-05-03T03:13:16.304Z,996.86
2019-05-03T03:14:16.774Z,996.80
2019-05-03T03:15:16.259Z,996.85
2019-05-03T03:16:16.280Z,996.83
2019-05-03T03:17:14.953Z,996.85
2019-05-03T03:18:15.690Z,996.91
2019-05-03T03:19:15.915Z,996.90
2019-05-03T03:20:16.142Z,996.87
2019-05-03T03:21:16.013Z,996.85
2019-05-03T03:22:15.955Z,996.95
2019-05-03T03:23:17.880Z,996.92
2019-05-03T03:24:16.952Z,996.89
2019-05-03T03:25:17.185Z,996.93
2019-05-03T03:26:16.999Z,996.90
2019-05-03T03:27:16.355Z,996.87
2019-05-03T03:28:15.846Z,997.01
2019-05-03T03:29:16.128Z,996.95
2019-05-03T03:30:17.269Z,996.98
2019-05-03T03:31:17.623Z,996.93
2019-05-03T03:32:18.292Z,997.00
2019-05-03T03:33:17.511Z,996.97
2019-05-03T03:34:18.409Z,996.98
2019-05-03T03:35:20.196Z,996.98
2019-05-03T03:36:37.584Z,996.98
2019-05-03T03:37:15.755Z,997.05
2019-05-03T03:38:15.472Z,997.03
2019-05-03T03:39:15.161Z,997.06
2019-05-03T03:40:16.003Z,997.06
2019-05-03T03:41:16.321Z,997.03
2019-05-03T03:42:16.209Z,997.07
2019-05-03T03:43:15.684Z,997.07
2019-05-03T03:44:15.336Z,997.10
2019-05-03T03:45:16.538Z,997.10
2019-05-03T03:46:15.856Z,997.13
2019-05-03T03:47:16.618Z,997.13
2019-05-03T03:48:15.853Z,997.13
2019-05-03T03:49:15.492Z,997.15
2019-05-03T03:50:15.233Z,997.15
2019-05-03T03:51:15.496Z,997.20
2019-05-03T03:52:16.024Z,997.22
2019-05-03T03:53:15.409Z,997.20
2019-05-03T03:54:15.513Z,997.20
2019-05-03T03:55:15.917Z,997.25
2019-05-03T03:56:16.006Z,997.27
2019-05-03T03:57:15.920Z,997.26
2019-05-03T03:58:21.781Z,997.30
2019-05-03T03:59:15.448Z,997.31
2019-05-03T04:00:16.288Z,997.27
2019-05-03T04:01:15.713Z,997.32
2019-05-03T04:02:15.951Z,997.29
2019-05-03T04:03:15.840Z,997.31
2019-05-03T04:04:16.040Z,997.34
2019-05-03T04:05:15.967Z,997.32
2019-05-03T04:06:15.430Z,997.34
2019-05-03T04:07:15.787Z,997.35
2019-05-03T04:08:16.246Z,997.33
2019-05-03T04:09:16.106Z,997.34
2019-05-03T04:10:15.659Z,997.35
2019-05-03T04:11:15.588Z,997.36
2019-05-03T04:12:16.481Z,997.41
2019-05-03T04:13:16.018Z,997.38
2019-05-03T04:14:16.156Z,997.39
2019-05-03T04:15:15.999Z,997.44
2019-05-03T04:16:20.271Z,997.37
2019-05-03T04:17:15.290Z,997.42
2019-05-03T04:18:16.349Z,997.40
2019-05-03T04:19:14.152Z,997.45
2019-05-03T04:20:16.226Z,997.47
2019-05-03T04:21:16.182Z,997.48
2019-05-03T04:22:16.470Z,997.46
2019-05-03T04:23:16.243Z,997.46
2019-05-03T04:24:16.312Z,997.49
2019-05-03T04:25:15.450Z,997.48
2019-05-03T04:26:16.315Z,997.53
2019-05-03T04:27:19.773Z,997.56
2019-05-03T04:28:16.313Z,997.60
2019-05-03T04:29:16.097Z,997.61
2019-05-03T04:30:16.478Z,997.61
2019-05-03T04:31:15.283Z,997.59
2019-05-03T04:32:15.717Z,997.55
2019-05-03T04:33:16.001Z,997.61
2019-05-03T04:34:16.256Z,997.62
2019-05-03T04:35:16.470Z,997.60
2019-05-03T04:36:16.000Z,997.61
2019-05-03T04:37:16.176Z,997.60
2019-05-03T04:38:16.304Z,997.62
2019-05-03T04:39:17.172Z,997.64
2019-05-03T04:40:15.820Z,997.64
2019-05-03T04:41:15.898Z,997.60
2019-05-03T04:42:16.531Z,997.58
2019-05-03T04:43:16.259Z,997.64
2019-05-03T04:44:15.421Z,997.61
2019-05-03T04:45:16.530Z,997.67
2019-05-03T04:46:16.213Z,997.64
2019-05-03T04:47:15.605Z,997.67
2019-05-03T04:48:15.990Z,997.75
2019-05-03T04:49:15.120Z,997.72
2019-05-03T04:50:16.259Z,997.76
2019-05-03T04:51:16.588Z,997.77
2019-05-03T04:52:16.582Z,997.84
2019-05-03T04:53:16.113Z,997.82
2019-05-03T04:54:16.383Z,997.80
2019-05-03T04:55:16.030Z,997.74
2019-05-03T04:56:16.654Z,997.89
2019-05-03T04:57:16.025Z,997.89
2019-05-03T04:58:16.183Z,997.92
2019-05-03T04:59:15.983Z,997.91
2019-05-03T05:00:15.986Z,998.00
2019-05-03T05:01:15.735Z,998.04
2019-05-03T05:02:15.977Z,997.97
2019-05-03T05:03:15.049Z,998.07
2019-05-03T05:04:16.089Z,998.10
2019-05-03T05:05:15.418Z,998.08
2019-05-03T05:06:15.407Z,998.01
2019-05-03T05:07:15.504Z,998.07
2019-05-03T05:08:16.019Z,998.10
2019-05-03T05:09:15.606Z,998.17
2019-05-03T05:10:15.324Z,998.11
2019-05-03T05:11:15.797Z,998.12
2019-05-03T05:12:16.193Z,998.18
2019-05-03T05:13:15.699Z,998.22
2019-05-03T05:14:15.295Z,998.26
2019-05-03T05:15:15.657Z,998.29
2019-05-03T05:16:16.091Z,998.25
2019-05-03T05:17:16.387Z,998.25
2019-05-03T05:18:16.010Z,998.22
2019-05-03T05:19:15.196Z,998.31
2019-05-03T05:20:14.512Z,998.32
2019-05-03T05:21:14.981Z,998.27
2019-05-03T05:22:15.517Z,998.30
2019-05-03T05:23:14.734Z,998.30
2019-05-03T05:24:15.127Z,998.31
2019-05-03T05:25:14.862Z,998.37
2019-05-03T05:26:14.497Z,998.37
2019-05-03T05:27:14.641Z,998.33
2019-05-03T05:28:15.009Z,998.35
2019-05-03T05:29:14.635Z,998.36
2019-05-03T05:30:14.939Z,998.38
2019-05-03T05:31:15.143Z,998.34
2019-05-03T05:32:14.457Z,998.36
2019-05-03T05:33:14.536Z,998.39
2019-05-03T05:34:15.367Z,998.33
2019-05-03T05:35:14.372Z,998.34
2019-05-03T05:36:15.294Z,998.32
2019-05-03T05:37:14.521Z,998.29
2019-05-03T05:38:14.988Z,998.23
2019-05-03T05:39:15.273Z,998.26
2019-05-03T05:40:15.544Z,998.33
2019-05-03T05:41:15.497Z,998.37
2019-05-03T05:42:14.886Z,998.42
2019-05-03T05:43:15.193Z,998.35
2019-05-03T05:44:14.520Z,998.37
2019-05-03T05:45:15.353Z,998.34
2019-05-03T05:46:14.677Z,998.34
2019-05-03T05:47:14.996Z,998.38
2019-05-03T05:48:15.325Z,998.38
2019-05-03T05:49:14.716Z,998.35
2019-05-03T05:50:14.917Z,998.40
2019-05-03T05:51:15.864Z,998.32
2019-05-03T05:52:15.304Z,998.38
2019-05-03T05:53:15.135Z,998.32
2019-05-03T05:54:14.365Z,998.37
2019-05-03T05:55:14.898Z,998.32
2019-05-03T05:56:13.456Z,998.41
2019-05-03T05:57:14.979Z,998.34
2019-05-03T05:58:15.565Z,998.35
2019-05-03T05:59:14.836Z,998.34
2019-05-03T06:00:15.325Z,998.35
2019-05-03T06:01:14.612Z,998.35
2019-05-03T06:02:15.055Z,998.32
2019-05-03T06:03:14.903Z,998.38
2019-05-03T06:04:15.331Z,998.41
2019-05-03T06:05:14.826Z,998.45
2019-05-03T06:06:15.205Z,998.44
2019-05-03T06:07:14.884Z,998.50
2019-05-03T06:08:15.118Z,998.52
2019-05-03T06:09:15.328Z,998.50
2019-05-03T06:10:14.759Z,998.47
2019-05-03T06:11:14.877Z,998.50
2019-05-03T06:12:14.849Z,998.51
2019-05-03T06:13:15.144Z,998.52
2019-05-03T06:14:15.190Z,998.54
2019-05-03T06:15:14.990Z,998.50
2019-05-03T06:16:15.359Z,998.52
2019-05-03T06:17:14.684Z,998.51
2019-05-03T06:18:14.675Z,998.54
2019-05-03T06:19:14.709Z,998.50
2019-05-03T06:20:13.369Z,998.63
2019-05-03T06:21:14.816Z,998.53
2019-05-03T06:22:15.253Z,998.66
2019-05-03T06:23:14.458Z,998.59
2019-05-03T06:24:14.801Z,998.58
2019-05-03T06:25:16.355Z,998.57
2019-05-03T06:26:15.614Z,998.62
2019-05-03T06:27:15.206Z,998.62
2019-05-03T06:28:18.249Z,998.56
2019-05-03T06:29:15.012Z,998.60
2019-05-03T06:30:14.948Z,998.59
2019-05-03T06:31:14.919Z,998.53
2019-05-03T06:32:15.257Z,998.57
2019-05-03T06:33:14.374Z,998.58
2019-05-03T06:34:14.987Z,998.61
2019-05-03T06:35:15.096Z,998.60
2019-05-03T06:36:15.124Z,998.61
2019-05-03T06:37:14.780Z,998.65
2019-05-03T06:38:15.144Z,998.64
2019-05-03T06:39:15.068Z,998.63
2019-05-03T06:40:14.925Z,998.60
2019-05-03T06:41:15.068Z,998.60
2019-05-03T06:42:17.486Z,998.59
2019-05-03T06:43:15.751Z,998.60
2019-05-03T06:44:14.450Z,998.64
2019-05-03T06:45:14.766Z,998.61
2019-05-03T06:46:16.352Z,998.66
2019-05-03T06:47:14.832Z,998.59
2019-05-03T06:48:15.782Z,998.60
2019-05-03T06:49:15.158Z,998.60
2019-05-03T06:50:14.534Z,998.65
2019-05-03T06:51:17.859Z,998.65
2019-05-03T06:52:14.720Z,998.70
2019-05-03T06:53:15.336Z,998.64
2019-05-03T06:54:15.528Z,998.63
2019-05-03T06:55:14.539Z,998.68
2019-05-03T06:56:14.851Z,998.66
2019-05-03T06:57:14.796Z,998.64
2019-05-03T06:58:15.180Z,998.63
2019-05-03T06:59:14.385Z,998.67
2019-05-03T07:00:13.121Z,998.67
2019-05-03T07:01:14.833Z,998.69
2019-05-03T07:02:14.847Z,998.69
2019-05-03T07:03:14.992Z,998.65
2019-05-03T07:04:15.129Z,998.70
2019-05-03T07:05:14.847Z,998.71
2019-05-03T07:06:14.870Z,998.75
2019-05-03T07:07:13.155Z,998.74
2019-05-03T07:08:15.141Z,998.78
2019-05-03T07:09:14.434Z,998.77
2019-05-03T07:10:14.876Z,998.83
2019-05-03T07:11:13.059Z,998.78
2019-05-03T07:12:14.868Z,998.79
2019-05-03T07:13:15.012Z,998.80
2019-05-03T07:14:13.031Z,998.73
2019-05-03T07:15:14.494Z,998.73
2019-05-03T07:16:14.872Z,998.79
2019-05-03T07:17:14.506Z,998.82
2019-05-03T07:18:12.996Z,998.86
2019-05-03T07:19:14.737Z,998.78
2019-05-03T07:20:14.741Z,998.76
2019-05-03T07:21:15.127Z,998.83
2019-05-03T07:22:15.127Z,998.84
2019-05-03T07:23:12.960Z,998.82
2019-05-03T07:24:14.668Z,998.86
2019-05-03T07:25:14.833Z,998.88
2019-05-03T07:26:14.924Z,998.89
2019-05-03T07:27:12.932Z,998.93
2019-05-03T07:28:14.877Z,998.90
2019-05-03T07:29:15.083Z,998.89
2019-05-03T07:30:12.924Z,998.90
2019-05-03T07:31:14.948Z,998.89
2019-05-03T07:32:12.896Z,998.96
2019-05-03T07:33:15.022Z,998.89
2019-05-03T07:34:12.879Z,998.99
2019-05-03T07:35:14.669Z,998.92
2019-05-03T07:36:15.053Z,998.93
2019-05-03T07:37:14.533Z,998.92
2019-05-03T07:38:12.847Z,998.89
2019-05-03T07:39:14.569Z,998.97
2019-05-03T07:40:14.767Z,998.97
2019-05-03T07:41:14.778Z,998.98
2019-05-03T07:42:12.854Z,999.00
2019-05-03T07:43:14.754Z,998.93
2019-05-03T07:44:12.799Z,998.91
2019-05-03T07:45:14.789Z,998.97
2019-05-03T07:46:14.548Z,998.97
2019-05-03T07:47:14.719Z,998.98
2019-05-03T07:48:14.910Z,998.94
2019-05-03T07:49:12.778Z,998.92
2019-05-03T07:50:12.750Z,998.94
2019-05-03T07:51:14.418Z,998.97
2019-05-03T07:52:14.594Z,998.94
2019-05-03T07:53:14.869Z,998.89
2019-05-03T07:54:12.731Z,998.90
2019-05-03T07:55:14.827Z,998.87
2019-05-03T07:56:12.709Z,998.88
2019-05-03T07:57:12.699Z,998.94
2019-05-03T07:58:14.821Z,998.91
2019-05-03T07:59:14.890Z,998.92
2019-05-03T08:00:14.818Z,998.89
2019-05-03T08:01:14.822Z,998.93
2019-05-03T08:02:14.445Z,998.88
2019-05-03T08:03:12.659Z,998.94
2019-05-03T08:04:12.690Z,998.94
2019-05-03T08:05:12.635Z,998.94
2019-05-03T08:06:14.768Z,998.95
2019-05-03T08:07:22.098Z,998.98
2019-05-03T08:08:14.917Z,998.98
2019-05-03T08:09:12.610Z,998.94
2019-05-03T08:10:12.621Z,998.95
2019-05-03T08:11:14.415Z,998.92
2019-05-03T08:12:12.607Z,998.93
2019-05-03T08:13:14.849Z,998.95
2019-05-03T08:14:15.992Z,998.99
2019-05-03T08:15:15.603Z,998.97
2019-05-03T08:16:12.571Z,999.03
2019-05-03T08:17:12.584Z,999.02
2019-05-03T08:18:15.064Z,998.99
2019-05-03T08:19:12.592Z,998.97
2019-05-03T08:20:14.378Z,999.02
2019-05-03T08:21:12.558Z,998.99
2019-05-03T08:22:12.561Z,999.00
2019-05-03T08:23:24.463Z,999.04
2019-05-03T08:24:14.919Z,998.99
2019-05-03T08:25:14.556Z,999.06
2019-05-03T08:26:12.537Z,999.07
2019-05-03T08:27:14.764Z,999.05
2019-05-03T08:28:14.412Z,999.05
2019-05-03T08:29:16.982Z,999.07
2019-05-03T08:30:14.785Z,999.03
2019-05-03T08:31:12.479Z,999.01
2019-05-03T08:32:12.470Z,999.06
2019-05-03T08:33:14.720Z,999.02
2019-05-03T08:34:12.486Z,999.09
2019-05-03T08:35:12.469Z,999.09
2019-05-03T08:36:12.489Z,999.06
2019-05-03T08:37:12.450Z,999.04
2019-05-03T08:38:12.451Z,998.99
2019-05-03T08:39:12.437Z,999.05
2019-05-03T08:40:12.430Z,998.99
2019-05-03T08:41:14.477Z,998.94
2019-05-03T08:42:12.472Z,998.96
2019-05-03T08:43:12.429Z,998.96
2019-05-03T08:44:14.492Z,998.97
2019-05-03T08:45:12.423Z,998.97
2019-05-03T08:46:12.416Z,998.94
2019-05-03T08:47:12.437Z,998.99
2019-05-03T08:48:14.879Z,998.93
2019-05-03T08:49:12.412Z,998.99
2019-05-03T08:50:17.553Z,998.99
2019-05-03T08:51:14.888Z,999.00
2019-05-03T08:52:12.415Z,998.99
2019-05-03T08:53:12.388Z,998.99
2019-05-03T08:54:12.394Z,998.93
2019-05-03T08:55:12.371Z,998.94
2019-05-03T08:56:12.362Z,998.94
2019-05-03T08:57:12.852Z,998.94
2019-05-03T08:58:12.368Z,998.86
2019-05-03T08:59:12.345Z,998.92
2019-05-03T09:00:14.374Z,998.88
2019-05-03T09:01:14.627Z,998.89
2019-05-03T09:02:14.460Z,998.90
2019-05-03T09:03:14.318Z,998.88
2019-05-03T09:04:12.377Z,998.84
2019-05-03T09:05:12.319Z,998.86
2019-05-03T09:06:12.318Z,998.86
2019-05-03T09:07:14.604Z,998.84
2019-05-03T09:08:12.298Z,998.80
2019-05-03T09:09:12.289Z,998.89
2019-05-03T09:10:13.554Z,998.86
2019-05-03T09:11:12.281Z,998.83
2019-05-03T09:12:12.285Z,998.78
2019-05-03T09:13:14.160Z,998.76
2019-05-03T09:14:12.252Z,998.78
2019-05-03T09:15:12.245Z,998.75
2019-05-03T09:16:12.294Z,998.73
2019-05-03T09:17:12.231Z,998.71
2019-05-03T09:18:15.150Z,998.77
2019-05-03T09:19:14.697Z,998.76
2019-05-03T09:20:12.208Z,998.80
2019-05-03T09:21:12.207Z,998.78
2019-05-03T09:22:12.210Z,998.72
2019-05-03T09:23:12.183Z,998.65
2019-05-03T09:24:12.200Z,998.64
2019-05-03T09:25:12.268Z,998.60
2019-05-03T09:26:12.169Z,998.51
2019-05-03T09:27:12.150Z,998.64
2019-05-03T09:28:12.196Z,998.48
2019-05-03T09:29:12.146Z,998.50
2019-05-03T09:30:14.375Z,998.47
2019-05-03T09:31:12.136Z,998.50
2019-05-03T09:32:12.115Z,998.47
2019-05-03T09:33:12.107Z,998.40
2019-05-03T09:34:12.109Z,998.46
2019-05-03T09:35:12.099Z,998.42
2019-05-03T09:36:12.176Z,998.40
2019-05-03T09:37:12.093Z,998.42
2019-05-03T09:38:12.085Z,998.39
2019-05-03T09:39:12.194Z,998.39
2019-05-03T09:40:12.085Z,998.44
2019-05-03T09:41:12.080Z,998.39
2019-05-03T09:42:12.085Z,998.39
2019-05-03T09:43:12.075Z,998.41
2019-05-03T09:44:12.057Z,998.40
2019-05-03T09:45:12.066Z,998.39
2019-05-03T09:46:12.050Z,998.43
2019-05-03T09:47:12.103Z,998.44
2019-05-03T09:48:12.201Z,998.42
2019-05-03T09:49:14.475Z,998.42
2019-05-03T09:50:12.017Z,998.43
2019-05-03T09:51:12.001Z,998.45
2019-05-03T09:52:11.995Z,998.41
2019-05-03T09:53:11.994Z,998.41
2019-05-03T09:54:12.032Z,998.45
2019-05-03T09:55:11.965Z,998.44
2019-05-03T09:56:11.983Z,998.47
2019-05-03T09:57:11.978Z,998.48
2019-05-03T09:58:11.967Z,998.55
2019-05-03T09:59:11.979Z,998.47
2019-05-03T10:00:12.099Z,998.47
2019-05-03T10:01:11.967Z,998.52
2019-05-03T10:02:11.974Z,998.54
2019-05-03T10:03:11.964Z,998.48
2019-05-03T10:04:12.000Z,998.47
2019-05-03T10:05:11.991Z,998.54
2019-05-03T10:06:14.527Z,998.53
2019-05-03T10:07:15.154Z,998.54
2019-05-03T10:08:12.053Z,998.56
2019-05-03T10:09:11.955Z,998.60
2019-05-03T10:10:11.951Z,998.57
2019-05-03T10:11:11.939Z,998.50
2019-05-03T10:12:12.035Z,998.50
2019-05-03T10:13:16.839Z,998.54
2019-05-03T10:14:15.333Z,998.55
2019-05-03T10:15:11.956Z,998.54
2019-05-03T10:16:11.901Z,998.53
2019-05-03T10:17:11.895Z,998.53
2019-05-03T10:18:11.940Z,998.54
2019-05-03T10:19:14.304Z,998.50
2019-05-03T10:20:11.873Z,998.47
2019-05-03T10:21:11.954Z,998.44
2019-05-03T10:22:11.852Z,998.46
2019-05-03T10:23:11.852Z,998.48
2019-05-03T10:24:11.924Z,998.51
2019-05-03T10:25:11.831Z,998.43
2019-05-03T10:26:11.823Z,998.42
2019-05-03T10:27:11.856Z,998.44
2019-05-03T10:28:11.809Z,998.48
2019-05-03T10:29:11.953Z,998.44
2019-05-03T10:30:13.397Z,998.43
2019-05-03T10:31:11.791Z,998.42
2019-05-03T10:32:11.787Z,998.37
2019-05-03T10:33:11.769Z,998.36
2019-05-03T10:34:11.787Z,998.38
2019-05-03T10:35:11.782Z,998.40
2019-05-03T10:36:11.839Z,998.36
2019-05-03T10:37:11.769Z,998.30
2019-05-03T10:38:11.761Z,998.36
2019-05-03T10:39:11.747Z,998.32
2019-05-03T10:40:11.736Z,998.34
2019-05-03T10:41:11.757Z,998.34
2019-05-03T10:42:11.741Z,998.36
2019-05-03T10:43:11.742Z,998.31
2019-05-03T10:44:11.718Z,998.39
2019-05-03T10:45:11.751Z,998.36
2019-05-03T10:46:11.706Z,998.30
2019-05-03T10:47:11.714Z,998.39
2019-05-03T10:48:11.734Z,998.26
2019-05-03T10:49:11.715Z,998.32
2019-05-03T10:50:11.700Z,998.34
2019-05-03T10:51:11.691Z,998.36
2019-05-03T10:52:11.673Z,998.22
2019-05-03T10:53:11.683Z,998.30
2019-05-03T10:54:11.699Z,998.30
2019-05-03T10:55:11.750Z,998.31
2019-05-03T10:56:13.465Z,998.45
2019-05-03T10:57:11.679Z,998.37
2019-05-03T10:58:11.657Z,998.41
2019-05-03T10:59:11.641Z,998.35
2019-05-03T11:00:39.416Z,998.30
2019-05-03T11:01:12.731Z,998.42
2019-05-03T11:02:11.635Z,998.42
2019-05-03T11:03:11.619Z,998.40
2019-05-03T11:04:11.612Z,998.43
2019-05-03T11:05:11.597Z,998.42
2019-05-03T11:06:11.603Z,998.48
2019-05-03T11:07:11.714Z,998.39
2019-05-03T11:08:11.574Z,998.36
2019-05-03T11:09:11.578Z,998.54
2019-05-03T11:10:11.552Z,998.39
2019-05-03T11:11:11.551Z,998.40
2019-05-03T11:12:11.928Z,998.45
2019-05-03T11:13:11.547Z,998.35
2019-05-03T11:14:11.547Z,998.30
2019-05-03T11:15:11.558Z,998.37
2019-05-03T11:16:11.571Z,998.42
2019-05-03T11:17:11.543Z,998.37
2019-05-03T11:18:11.548Z,998.35
2019-05-03T11:19:11.548Z,998.35
2019-05-03T11:20:11.573Z,998.33
2019-05-03T11:21:11.530Z,998.34
2019-05-03T11:22:11.526Z,998.34
2019-05-03T11:23:11.513Z,998.34
2019-05-03T11:24:11.574Z,998.28
2019-05-03T11:25:11.498Z,998.27
2019-05-03T11:26:11.521Z,998.29
2019-05-03T11:27:11.505Z,998.30
2019-05-03T11:28:11.479Z,998.31
2019-05-03T11:29:11.474Z,998.29
2019-05-03T11:30:11.505Z,998.30
2019-05-03T11:31:11.483Z,998.25
2019-05-03T11:32:11.895Z,998.23
2019-05-03T11:33:11.483Z,998.29
2019-05-03T11:34:11.479Z,998.34
2019-05-03T11:35:11.843Z,998.36
2019-05-03T11:36:11.467Z,998.33
2019-05-03T11:37:11.423Z,998.33
2019-05-03T11:38:11.412Z,998.38
2019-05-03T11:39:11.410Z,998.30
2019-05-03T11:40:11.400Z,998.30
2019-05-03T11:41:11.403Z,998.28
2019-05-03T11:42:11.388Z,998.30
2019-05-03T11:43:11.367Z,998.22
2019-05-03T11:44:11.364Z,998.28
2019-05-03T11:45:11.368Z,998.24
2019-05-03T11:46:11.361Z,998.32
2019-05-03T11:47:11.373Z,998.24
2019-05-03T11:48:11.355Z,998.28
2019-05-03T11:49:11.337Z,998.29
2019-05-03T11:50:11.331Z,998.28
2019-05-03T11:51:11.344Z,998.27
2019-05-03T11:52:11.327Z,998.32
2019-05-03T11:53:11.314Z,998.30
2019-05-03T11:54:11.332Z,998.32
2019-05-03T11:55:12.233Z,998.30
2019-05-03T11:56:12.225Z,998.32
2019-05-03T11:57:11.278Z,998.35
2019-05-03T11:58:11.272Z,998.33
2019-05-03T11:59:11.258Z,998.42
2019-05-03T12:00:11.340Z,998.43
2019-05-03T12:01:16.377Z,998.40
2019-05-03T12:02:12.237Z,998.43
2019-05-03T12:03:11.248Z,998.39
2019-05-03T12:04:11.355Z,998.44
2019-05-03T12:05:11.236Z,998.40
2019-05-03T12:06:11.308Z,998.41
2019-05-03T12:07:11.217Z,998.43
2019-05-03T12:08:11.218Z,998.42
2019-05-03T12:09:11.195Z,998.44
2019-05-03T12:10:28.267Z,998.40
2019-05-03T12:11:12.231Z,998.40
2019-05-03T12:12:11.184Z,998.43
2019-05-03T12:13:11.207Z,998.43
2019-05-03T12:14:11.219Z,998.39
2019-05-03T12:15:11.153Z,998.37
2019-05-03T12:16:20.120Z,998.36
2019-05-03T12:17:18.916Z,998.38
2019-05-03T12:18:12.170Z,998.31
2019-05-03T12:19:17.187Z,998.31
2019-05-03T12:20:13.505Z,998.34
2019-05-03T12:21:12.437Z,998.29
2019-05-03T12:22:11.676Z,998.32
2019-05-03T12:23:12.103Z,998.36
2019-05-03T12:24:11.822Z,998.33
2019-05-03T12:25:11.681Z,998.33
2019-05-03T12:26:13.303Z,998.30
2019-05-03T12:27:11.068Z,998.28
2019-05-03T12:28:11.080Z,998.31